Time;durP1;ratioP1;P1;durP2;ratioP2;P2;SDS_P1;SDS_P2;PMS_P1;PMS_P2;Temp;Humidity;BMP_temperature;BMP_pressure;BME280_temperature;BME280_humidity;BME280_pressure;Samples;Min_cycle;Max_cycle;Signal;HPM_P1;HPM_P2
2021/01/04 00:00:35;;;;;;;40.65;23.70;;;;;;;;;;5087572;28;20224;-86
2021/01/04 00:03:20;;;;;;;35.38;22.65;;;;;;;;;;5064628;28;20188;-87
2021/01/04 00:06:01;;;;;;;32.15;21.48;;;;;;;;;;5075879;28;20196;-86
2021/01/04 00:08:32;;;;;;;30.80;20.08;;;;;;;;;;5078641;28;20210;-85
2021/01/04 00:11:15;;;;;;;35.17;23.48;;;;;;;;;;5080499;28;20184;-86
2021/01/04 00:13:50;;;;;;;30.95;21.20;;;;;;;;;;5080463;28;20681;-86
2021/01/04 00:16:25;;;;;;;34.10;21.42;;;;;;;;;;5080861;28;20183;-85
2021/01/04 00:19:20;;;;;;;33.63;21.20;;;;;;;;;;5080167;28;20199;-88
2021/01/04 00:22:05;;;;;;;34.08;21.80;;;;;;;;;;5043411;28;20240;-85
2021/01/04 00:24:39;;;;;;;35.78;21.65;;;;;;;;;;5080591;28;20180;-85
2021/01/04 00:27:15;;;;;;;32.15;20.52;;;;;;;;;;5063193;28;20273;-86
2021/01/04 00:29:41;;;;;;;32.88;22.33;;;;;;;;;;5079698;28;20271;-86
2021/01/04 00:32:15;;;;;;;27.35;20.77;;;;;;;;;;5085745;28;20210;-86
2021/01/04 00:34:44;;;;;;;33.63;21.95;;;;;;;;;;5114127;28;20176;-86
2021/01/04 00:37:10;;;;;;;30.55;20.27;;;;;;;;;;5098376;28;20241;-85
2021/01/04 00:39:47;;;;;;;31.23;20.37;;;;;;;;;;5099030;28;20180;-86
2021/01/04 00:42:16;;;;;;;35.83;20.25;;;;;;;;;;5096081;28;20466;-86
2021/01/04 00:44:48;;;;;;;29.02;18.95;;;;;;;;;;5100285;28;20176;-85
2021/01/04 00:47:18;;;;;;;37.25;22.05;;;;;;;;;;5099191;28;20171;-86
2021/01/04 00:49:47;;;;;;;36.38;21.45;;;;;;;;;;5098522;28;20175;-86
2021/01/04 00:52:22;;;;;;;27.55;19.38;;;;;;;;;;5101876;28;20203;-86
2021/01/04 00:54:56;;;;;;;31.48;20.35;;;;;;;;;;5098022;28;20211;-86
2021/01/04 00:57:22;;;;;;;34.53;22.15;;;;;;;;;;5097074;28;20228;-87
2021/01/04 01:00:02;;;;;;;26.23;18.73;;;;;;;;;;5094782;28;20226;-86
2021/01/04 01:02:37;;;;;;;29.90;21.25;;;;;;;;;;5094780;28;20515;-86
2021/01/04 01:05:22;;;;;;;29.40;19.58;;;;;;;;;;5095913;28;20168;-85
2021/01/04 01:08:03;;;;;;;30.33;21.08;;;;;;;;;;5098378;28;20182;-83
2021/01/04 01:10:30;;;;;;;31.88;20.95;;;;;;;;;;5101909;28;20180;-86
2021/01/04 01:13:04;;;;;;;32.20;19.98;;;;;;;;;;5100984;28;20664;-86
2021/01/04 01:15:39;;;;;;;28.38;20.35;;;;;;;;;;5102684;28;20257;-86
2021/01/04 01:18:18;;;;;;;32.22;20.45;;;;;;;;;;5098230;28;20202;-86
2021/01/04 01:20:49;;;;;;;31.75;20.38;;;;;;;;;;5100759;28;20191;-85
2021/01/04 01:23:15;;;;;;;29.05;18.67;;;;;;;;;;5099209;28;20176;-86
2021/01/04 01:25:44;;;;;;;30.77;21.25;;;;;;;;;;5101953;28;20202;-85
2021/01/04 01:28:29;;;;;;;24.33;17.88;;;;;;;;;;5099897;28;20198;-85
2021/01/04 01:30:55;;;;;;;28.05;19.08;;;;;;;;;;5106166;28;20625;-86
2021/01/04 01:33:37;;;;;;;26.87;17.00;;;;;;;;;;5105117;28;20192;-85
2021/01/04 01:36:03;;;;;;;27.33;18.58;;;;;;;;;;5100835;28;20448;-87
2021/01/04 01:38:32;;;;;;;26.33;18.20;;;;;;;;;;5104283;28;20187;-86
2021/01/04 01:41:07;;;;;;;24.58;18.08;;;;;;;;;;5115727;28;20483;-86
2021/01/04 01:43:42;;;;;;;27.10;19.60;;;;;;;;;;5105367;28;20183;-86
2021/01/04 01:46:27;;;;;;;28.58;19.13;;;;;;;;;;5098189;28;20187;-85
2021/01/04 01:49:13;;;;;;;24.00;16.25;;;;;;;;;;5100486;28;20214;-86
2021/01/04 01:51:39;;;;;;;27.15;18.33;;;;;;;;;;5123956;27;20195;-86
2021/01/04 01:54:38;;;;;;;26.17;16.40;;;;;;;;;;5100069;28;20192;-85
2021/01/04 01:57:04;;;;;;;25.83;17.88;;;;;;;;;;5018070;28;20487;-85
2021/01/04 01:59:30;;;;;;;26.87;18.87;;;;;;;;;;5012451;28;20257;-85
2021/01/04 02:02:08;;;;;;;25.80;17.37;;;;;;;;;;5037003;28;20460;-85
2021/01/04 02:04:40;;;;;;;27.88;18.25;;;;;;;;;;5021292;28;20432;-85
2021/01/04 02:07:11;;;;;;;23.63;17.83;;;;;;;;;;5026345;28;20216;-89
2021/01/04 02:09:37;;;;;;;27.77;18.48;;;;;;;;;;5026925;28;20285;-85
2021/01/04 02:12:03;;;;;;;25.13;16.87;;;;;;;;;;5038190;28;20191;-86
2021/01/04 02:14:36;;;;;;;23.05;17.42;;;;;;;;;;5024814;28;20437;-85
2021/01/04 02:17:21;;;;;;;26.95;16.67;;;;;;;;;;5043529;28;20231;-85
2021/01/04 02:19:47;;;;;;;27.02;18.48;;;;;;;;;;5027202;28;20182;-87
2021/01/04 02:22:34;;;;;;;22.40;16.77;;;;;;;;;;5026757;28;20232;-86
2021/01/04 02:25:00;;;;;;;27.55;16.23;;;;;;;;;;5039872;28;20432;-87
2021/01/04 02:27:34;;;;;;;25.90;17.58;;;;;;;;;;5026681;28;20200;-87
2021/01/04 02:30:00;;;;;;;22.27;17.50;;;;;;;;;;5039164;28;20713;-85
2021/01/04 02:32:27;;;;;;;23.00;17.42;;;;;;;;;;5061887;28;20200;-85
2021/01/04 02:34:54;;;;;;;23.60;15.75;;;;;;;;;;5100503;28;20700;-86
2021/01/04 02:37:21;;;;;;;22.02;16.38;;;;;;;;;;5105054;28;20184;-86
2021/01/04 02:39:57;;;;;;;23.67;16.73;;;;;;;;;;5098530;28;20208;-85
2021/01/04 02:42:29;;;;;;;24.92;16.52;;;;;;;;;;5089331;28;20207;-86
2021/01/04 02:44:55;;;;;;;26.80;17.00;;;;;;;;;;5100297;28;20195;-85
2021/01/04 02:47:40;;;;;;;24.92;16.90;;;;;;;;;;5098035;28;20210;-86
2021/01/04 02:50:06;;;;;;;25.48;16.90;;;;;;;;;;5105273;28;20172;-87
2021/01/04 02:52:41;;;;;;;22.75;17.27;;;;;;;;;;5103620;28;20179;-85
2021/01/04 02:55:12;;;;;;;21.90;15.57;;;;;;;;;;5102578;28;20214;-85
2021/01/04 02:57:45;;;;;;;23.02;15.70;;;;;;;;;;5103467;28;20217;-86
2021/01/04 03:00:16;;;;;;;23.95;16.80;;;;;;;;;;5101034;28;20212;-85
2021/01/04 03:02:44;;;;;;;23.38;15.65;;;;;;;;;;5101425;28;20280;-87
2021/01/04 03:05:13;;;;;;;18.58;14.02;;;;;;;;;;5104433;28;20187;-85
2021/01/04 03:07:39;;;;;;;22.23;15.55;;;;;;;;;;5099100;28;20191;-85
2021/01/04 03:10:15;;;;;;;24.67;16.90;;;;;;;;;;5100080;28;20179;-86
2021/01/04 03:12:41;;;;;;;17.45;13.73;;;;;;;;;;5098528;28;20179;-85
2021/01/04 03:15:32;;;;;;;23.33;15.43;;;;;;;;;;5100780;28;20218;-84
2021/01/04 03:17:58;;;;;;;21.00;15.75;;;;;;;;;;5114983;28;20563;-86
2021/01/04 03:20:25;;;;;;;22.47;15.33;;;;;;;;;;5097724;28;20191;-86
2021/01/04 03:22:52;;;;;;;21.67;14.95;;;;;;;;;;5101652;28;20978;-84
2021/01/04 03:25:40;;;;;;;20.58;15.85;;;;;;;;;;5103256;28;20180;-85
2021/01/04 03:28:08;;;;;;;18.58;14.15;;;;;;;;;;5097177;28;20208;-85
2021/01/04 03:30:34;;;;;;;23.70;15.18;;;;;;;;;;5096627;28;20178;-85
2021/01/04 03:33:00;;;;;;;20.25;14.60;;;;;;;;;;5101276;28;20180;-86
2021/01/04 03:35:26;;;;;;;22.97;15.90;;;;;;;;;;5103896;28;20715;-85
2021/01/04 03:37:52;;;;;;;19.30;14.32;;;;;;;;;;5097538;28;20410;-85
2021/01/04 03:40:19;;;;;;;21.25;14.40;;;;;;;;;;5101651;28;20183;-85
2021/01/04 03:42:44;;;;;;;23.92;15.52;;;;;;;;;;5102513;28;20223;-87
2021/01/04 03:45:11;;;;;;;17.30;13.80;;;;;;;;;;5101575;28;20183;-86
2021/01/04 03:47:37;;;;;;;23.10;14.82;;;;;;;;;;5101788;28;20939;-85
2021/01/04 03:50:04;;;;;;;23.48;15.68;;;;;;;;;;5103652;28;20187;-85
2021/01/04 03:52:30;;;;;;;21.63;14.25;;;;;;;;;;5095391;28;20186;-85
2021/01/04 03:54:56;;;;;;;20.00;14.07;;;;;;;;;;5096412;28;20191;-86
2021/01/04 03:57:22;;;;;;;21.52;14.18;;;;;;;;;;5100574;28;20188;-86
2021/01/04 03:59:48;;;;;;;18.73;13.97;;;;;;;;;;5096182;28;20223;-83
2021/01/04 04:02:14;;;;;;;20.35;14.40;;;;;;;;;;5099155;28;20462;-86
2021/01/04 04:04:40;;;;;;;20.55;14.77;;;;;;;;;;5103299;28;20176;-88
2021/01/04 04:07:06;;;;;;;18.58;14.50;;;;;;;;;;5101647;28;20184;-84
2021/01/04 04:09:32;;;;;;;20.02;13.82;;;;;;;;;;5095746;28;20179;-85
2021/01/04 04:11:58;;;;;;;22.17;14.60;;;;;;;;;;5100179;28;20267;-86
2021/01/04 04:14:24;;;;;;;23.63;14.85;;;;;;;;;;5097458;28;20209;-86
2021/01/04 04:16:50;;;;;;;26.13;16.88;;;;;;;;;;5097993;28;20179;-86
2021/01/04 04:19:17;;;;;;;20.77;13.98;;;;;;;;;;5102127;28;20190;-86
2021/01/04 04:21:43;;;;;;;23.85;15.40;;;;;;;;;;5097582;28;20274;-86
2021/01/04 04:24:09;;;;;;;20.30;13.52;;;;;;;;;;5098636;28;20210;-86
2021/01/04 04:26:35;;;;;;;21.27;15.10;;;;;;;;;;5095012;28;20232;-85
2021/01/04 04:29:01;;;;;;;23.23;14.82;;;;;;;;;;5097601;28;20171;-86
2021/01/04 04:31:27;;;;;;;26.40;13.68;;;;;;;;;;5097579;28;20316;-85
2021/01/04 04:33:53;;;;;;;23.20;15.90;;;;;;;;;;5102251;28;20368;-86
2021/01/04 04:36:24;;;;;;;20.85;14.75;;;;;;;;;;5102341;28;20190;-85
2021/01/04 04:38:51;;;;;;;20.38;13.45;;;;;;;;;;5097263;28;20191;-86
2021/01/04 04:41:31;;;;;;;23.20;14.57;;;;;;;;;;5100085;28;20204;-84
2021/01/04 04:44:14;;;;;;;20.45;12.50;;;;;;;;;;5097161;28;20708;-86
2021/01/04 04:46:46;;;;;;;21.17;14.07;;;;;;;;;;5101580;28;20198;-85
2021/01/04 04:49:18;;;;;;;22.73;14.73;;;;;;;;;;5101777;28;20195;-86
2021/01/04 04:52:16;;;;;;;21.55;13.43;;;;;;;;;;5096505;28;20210;-85
2021/01/04 04:54:50;;;;;;;19.30;13.68;;;;;;;;;;5089064;28;20188;-86
2021/01/04 04:57:39;;;;;;;23.02;14.05;;;;;;;;;;5098526;28;20191;-86
2021/01/04 05:00:07;;;;;;;15.82;13.13;;;;;;;;;;5077876;28;20320;-85
2021/01/04 05:02:43;;;;;;;20.05;13.55;;;;;;;;;;5079376;28;20212;-86
2021/01/04 05:05:09;;;;;;;20.00;12.70;;;;;;;;;;5075607;28;20179;-86
2021/01/04 05:07:41;;;;;;;20.70;14.13;;;;;;;;;;5063270;28;20194;-83
2021/01/04 05:10:18;;;;;;;21.23;13.38;;;;;;;;;;5063493;28;20225;-86
2021/01/04 05:12:47;;;;;;;20.67;13.75;;;;;;;;;;5061560;28;20221;-85
2021/01/04 05:15:25;;;;;;;16.25;11.85;;;;;;;;;;5078486;28;20189;-87
2021/01/04 05:17:54;;;;;;;20.40;13.32;;;;;;;;;;5073727;28;20209;-86
2021/01/04 05:20:40;;;;;;;19.05;13.32;;;;;;;;;;5080711;28;20188;-86
2021/01/04 05:23:12;;;;;;;17.25;12.77;;;;;;;;;;5062813;28;20188;-86
2021/01/04 05:25:56;;;;;;;24.73;15.40;;;;;;;;;;5077116;28;20189;-86
2021/01/04 05:28:25;;;;;;;17.98;12.50;;;;;;;;;;5054929;28;20192;-86
2021/01/04 05:30:51;;;;;;;19.75;14.32;;;;;;;;;;5077314;28;20197;-86
2021/01/04 05:33:23;;;;;;;23.30;15.77;;;;;;;;;;5062961;28;20219;-86
2021/01/04 05:35:49;;;;;;;23.23;15.52;;;;;;;;;;5078715;28;20442;-86
2021/01/04 05:38:27;;;;;;;19.90;13.55;;;;;;;;;;5101418;28;20562;-87
2021/01/04 05:41:05;;;;;;;24.77;13.52;;;;;;;;;;5102305;28;20187;-86
2021/01/04 05:43:45;;;;;;;23.48;13.43;;;;;;;;;;5091907;28;20195;-87
2021/01/04 05:46:18;;;;;;;23.17;15.05;;;;;;;;;;5101727;28;20190;-83
2021/01/04 05:48:56;;;;;;;22.83;15.80;;;;;;;;;;5101696;28;20192;-90
2021/01/04 05:51:25;;;;;;;20.02;13.50;;;;;;;;;;5099003;28;20187;-84
2021/01/04 05:53:52;;;;;;;19.02;12.77;;;;;;;;;;5098087;28;20188;-85
2021/01/04 05:56:19;;;;;;;21.75;14.13;;;;;;;;;;5102229;28;20168;-84
2021/01/04 05:58:45;;;;;;;23.13;15.55;;;;;;;;;;5089423;28;20216;-84
2021/01/04 06:01:31;;;;;;;23.02;15.90;;;;;;;;;;5095928;28;20257;-84
2021/01/04 06:04:01;;;;;;;19.10;12.77;;;;;;;;;;5098594;28;20202;-86
2021/01/04 06:06:32;;;;;;;21.67;14.68;;;;;;;;;;5100598;28;20171;-86
2021/01/04 06:09:04;;;;;;;22.30;14.68;;;;;;;;;;5098687;28;20185;-86
2021/01/04 06:11:30;;;;;;;23.35;16.63;;;;;;;;;;5094915;28;20175;-86
2021/01/04 06:14:01;;;;;;;21.65;16.90;;;;;;;;;;5102364;28;20175;-86
2021/01/04 06:16:28;;;;;;;20.17;14.10;;;;;;;;;;5102797;28;20249;-86
2021/01/04 06:19:04;;;;;;;19.00;14.15;;;;;;;;;;5104696;28;20256;-86
2021/01/04 06:21:30;;;;;;;17.85;13.90;;;;;;;;;;5107796;28;20203;-85
2021/01/04 06:24:00;;;;;;;20.90;13.00;;;;;;;;;;5102820;28;20180;-86
2021/01/04 06:26:26;;;;;;;20.85;13.75;;;;;;;;;;5102693;28;20180;-85
2021/01/04 06:29:03;;;;;;;21.50;15.50;;;;;;;;;;5100691;28;20175;-85
2021/01/04 06:31:29;;;;;;;21.38;14.30;;;;;;;;;;5104246;28;20447;-86
2021/01/04 06:33:56;;;;;;;18.23;13.80;;;;;;;;;;5099058;28;20180;-89
2021/01/04 06:36:23;;;;;;;20.40;14.40;;;;;;;;;;5104636;28;20429;-89
2021/01/04 06:38:50;;;;;;;19.67;13.60;;;;;;;;;;5103376;28;20191;-86
2021/01/04 06:41:27;;;;;;;20.40;14.27;;;;;;;;;;5100312;28;20281;-85
2021/01/04 06:43:53;;;;;;;24.38;16.33;;;;;;;;;;5101708;28;20179;-87
2021/01/04 06:46:28;;;;;;;21.48;14.65;;;;;;;;;;5104440;28;20175;-88
2021/01/04 06:49:13;;;;;;;21.85;14.40;;;;;;;;;;5104983;28;20183;-86
2021/01/04 06:51:58;;;;;;;19.30;13.50;;;;;;;;;;5106631;28;20188;-87
2021/01/04 06:54:35;;;;;;;19.05;13.40;;;;;;;;;;5101097;28;20207;-86
2021/01/04 06:57:20;;;;;;;21.50;14.23;;;;;;;;;;5099460;28;20191;-87
2021/01/04 06:59:52;;;;;;;19.48;13.48;;;;;;;;;;5096871;28;20216;-86
2021/01/04 07:02:42;;;;;;;20.52;14.02;;;;;;;;;;5101348;28;20256;-86
2021/01/04 07:05:26;;;;;;;17.92;12.98;;;;;;;;;;5027644;28;20182;-86
2021/01/04 07:07:55;;;;;;;24.08;16.20;;;;;;;;;;5046140;28;20178;-87
2021/01/04 07:10:35;;;;;;;19.35;14.80;;;;;;;;;;5046227;28;20190;-87
2021/01/04 07:13:11;;;;;;;19.20;14.73;;;;;;;;;;5030570;28;20205;-85
2021/01/04 07:15:45;;;;;;;18.80;14.32;;;;;;;;;;5028256;28;20663;-88
2021/01/04 07:18:17;;;;;;;21.08;14.93;;;;;;;;;;5044952;28;20189;-85
2021/01/04 07:20:50;;;;;;;20.73;15.15;;;;;;;;;;5045740;28;20674;-87
2021/01/04 07:23:16;;;;;;;18.20;13.80;;;;;;;;;;5039287;28;20204;-86
2021/01/04 07:25:42;;;;;;;20.10;13.70;;;;;;;;;;5043827;28;20202;-87
2021/01/04 07:28:28;;;;;;;22.67;16.00;;;;;;;;;;5023647;28;20965;-87
2021/01/04 07:31:00;;;;;;;21.60;13.70;;;;;;;;;;5007738;28;20426;-86
2021/01/04 07:33:38;;;;;;;21.95;15.50;;;;;;;;;;4980238;28;20231;-87
2021/01/04 07:36:06;;;;;;;20.80;15.45;;;;;;;;;;5003011;28;20196;-87
2021/01/04 07:38:32;;;;;;;20.55;14.30;;;;;;;;;;5003941;28;20490;-88
2021/01/04 07:41:12;;;;;;;18.23;14.40;;;;;;;;;;5001545;28;20583;-86
2021/01/04 07:43:56;;;;;;;20.38;14.32;;;;;;;;;;5041990;28;21351;-87
2021/01/04 07:46:41;;;;;;;22.70;15.45;;;;;;;;;;5042410;28;20192;-85
2021/01/04 07:49:26;;;;;;;20.63;14.05;;;;;;;;;;5059041;28;20264;-86
2021/01/04 07:51:52;;;;;;;19.00;14.02;;;;;;;;;;5052538;28;20211;-87
2021/01/04 07:54:36;;;;;;;23.13;14.70;;;;;;;;;;5042878;28;20686;-86
2021/01/04 07:57:05;;;;;;;20.60;14.20;;;;;;;;;;5057211;28;20265;-87
2021/01/04 07:59:46;;;;;;;21.27;14.70;;;;;;;;;;5046325;28;20319;-86
2021/01/04 08:02:30;;;;;;;20.05;14.55;;;;;;;;;;5045579;28;20208;-85
2021/01/04 08:04:56;;;;;;;19.42;14.68;;;;;;;;;;5042782;28;20622;-86
2021/01/04 08:07:35;;;;;;;18.88;14.00;;;;;;;;;;5053465;28;20564;-87
2021/01/04 08:10:04;;;;;;;18.38;13.30;;;;;;;;;;5111798;28;20176;-87
2021/01/04 08:12:50;;;;;;;18.52;13.35;;;;;;;;;;5093258;28;20190;-86
2021/01/04 08:15:22;;;;;;;19.00;13.57;;;;;;;;;;5098928;28;20191;-86
2021/01/04 08:17:55;;;;;;;20.15;13.60;;;;;;;;;;5098074;28;20180;-84
2021/01/04 08:20:21;;;;;;;20.08;14.82;;;;;;;;;;5102241;28;20179;-84
2021/01/04 08:23:07;;;;;;;21.67;15.02;;;;;;;;;;5098761;28;20206;-86
2021/01/04 08:25:36;;;;;;;17.23;14.20;;;;;;;;;;5102376;28;20266;-86
2021/01/04 08:28:14;;;;;;;18.13;12.93;;;;;;;;;;5101635;28;20191;-85
2021/01/04 08:30:42;;;;;;;19.98;13.77;;;;;;;;;;5102071;28;20180;-84
2021/01/04 08:33:27;;;;;;;19.27;14.25;;;;;;;;;;5114155;28;20196;-84
2021/01/04 08:35:54;;;;;;;20.00;13.55;;;;;;;;;;5111883;28;20196;-84
2021/01/04 08:38:20;;;;;;;21.80;14.48;;;;;;;;;;5097769;28;20180;-84
2021/01/04 08:40:51;;;;;;;21.95;14.25;;;;;;;;;;5095554;28;20195;-84
2021/01/04 08:43:17;;;;;;;19.88;13.68;;;;;;;;;;5097552;28;20180;-84
2021/01/04 08:45:47;;;;;;;21.38;15.32;;;;;;;;;;5119712;27;20248;-84
2021/01/04 08:48:15;;;;;;;20.25;14.73;;;;;;;;;;5099843;28;20180;-84
2021/01/04 08:50:45;;;;;;;20.60;14.40;;;;;;;;;;5101422;28;20191;-84
2021/01/04 08:53:11;;;;;;;22.50;13.95;;;;;;;;;;5102375;28;20183;-83
2021/01/04 08:55:37;;;;;;;22.73;14.53;;;;;;;;;;5097504;28;20184;-82
2021/01/04 08:58:15;;;;;;;25.10;15.45;;;;;;;;;;5096085;28;20968;-84
2021/01/04 09:00:41;;;;;;;20.85;14.52;;;;;;;;;;5102159;28;20301;-84
2021/01/04 09:03:17;;;;;;;21.67;15.65;;;;;;;;;;5099721;28;20238;-83
2021/01/04 09:05:43;;;;;;;25.13;16.23;;;;;;;;;;5112299;28;20181;-82
2021/01/04 09:08:10;;;;;;;24.35;15.85;;;;;;;;;;5092791;28;20653;-84
2021/01/04 09:10:39;;;;;;;23.10;15.52;;;;;;;;;;5091661;28;20244;-84
2021/01/04 09:13:10;;;;;;;20.48;14.07;;;;;;;;;;5094392;28;20214;-84
2021/01/04 09:15:37;;;;;;;20.77;14.70;;;;;;;;;;5092382;28;20251;-83
2021/01/04 09:18:03;;;;;;;20.05;14.65;;;;;;;;;;5098219;28;20203;-84
2021/01/04 09:20:46;;;;;;;20.37;14.87;;;;;;;;;;5101880;28;20183;-84
2021/01/04 09:23:24;;;;;;;16.73;13.88;;;;;;;;;;5110677;28;20671;-84
2021/01/04 09:26:03;;;;;;;19.20;13.68;;;;;;;;;;5113776;28;20195;-84
2021/01/04 09:28:38;;;;;;;22.98;14.93;;;;;;;;;;5095980;28;20183;-84
2021/01/04 09:31:04;;;;;;;21.98;15.15;;;;;;;;;;5094934;28;20213;-84
2021/01/04 09:33:30;;;;;;;24.30;16.88;;;;;;;;;;5092032;28;20187;-84
2021/01/04 09:36:03;;;;;;;24.20;16.88;;;;;;;;;;5095227;28;20661;-85
2021/01/04 09:38:30;;;;;;;23.98;15.30;;;;;;;;;;5097027;28;20180;-86
2021/01/04 09:40:57;;;;;;;20.98;12.93;;;;;;;;;;5095415;28;20636;-85
2021/01/04 09:43:26;;;;;;;23.63;14.82;;;;;;;;;;5100702;28;20237;-85
2021/01/04 09:45:52;;;;;;;18.98;12.85;;;;;;;;;;5098451;28;20184;-84
2021/01/04 09:48:39;;;;;;;17.00;13.10;;;;;;;;;;5099918;28;20199;-84
2021/01/04 09:51:06;;;;;;;17.77;12.60;;;;;;;;;;5096849;28;20719;-83
2021/01/04 09:53:33;;;;;;;16.60;12.70;;;;;;;;;;5105345;28;20164;-85
2021/01/04 09:56:04;;;;;;;19.25;12.38;;;;;;;;;;5104318;28;20237;-84
2021/01/04 09:58:30;;;;;;;18.20;14.00;;;;;;;;;;5099188;28;20182;-84
2021/01/04 10:01:13;;;;;;;16.60;12.35;;;;;;;;;;5099540;28;20250;-84
2021/01/04 10:03:52;;;;;;;21.08;16.00;;;;;;;;;;5095606;28;20179;-84
2021/01/04 10:06:18;;;;;;;19.10;13.27;;;;;;;;;;5100778;28;20180;-86
2021/01/04 10:08:45;;;;;;;20.13;14.25;;;;;;;;;;5102323;28;20200;-85
2021/01/04 10:11:17;;;;;;;18.98;14.63;;;;;;;;;;5097648;28;20183;-84
2021/01/04 10:13:43;;;;;;;19.52;14.02;;;;;;;;;;5100452;28;20175;-83
2021/01/04 10:16:12;;;;;;;22.23;15.07;;;;;;;;;;5097172;28;20202;-83
2021/01/04 10:18:45;;;;;;;18.70;13.23;;;;;;;;;;5103887;28;20185;-83
2021/01/04 10:21:15;;;;;;;19.63;13.57;;;;;;;;;;5104416;28;20223;-83
2021/01/04 10:23:45;;;;;;;20.42;14.02;;;;;;;;;;5106770;28;20183;-83
2021/01/04 10:26:11;;;;;;;18.63;13.60;;;;;;;;;;5100997;28;20183;-85
2021/01/04 10:28:38;;;;;;;16.70;12.98;;;;;;;;;;5098161;28;20183;-86
2021/01/04 10:31:23;;;;;;;16.95;12.98;;;;;;;;;;5099267;28;20188;-84
2021/01/04 10:33:49;;;;;;;20.27;13.98;;;;;;;;;;5098003;28;20180;-86
2021/01/04 10:36:15;;;;;;;18.48;12.43;;;;;;;;;;5101737;28;20251;-84
2021/01/04 10:38:46;;;;;;;15.70;11.67;;;;;;;;;;5096058;28;20219;-85
2021/01/04 10:41:14;;;;;;;18.52;13.07;;;;;;;;;;5105841;28;20484;-85
2021/01/04 10:43:40;;;;;;;17.70;12.50;;;;;;;;;;5097075;28;20207;-85
2021/01/04 10:46:33;;;;;;;19.05;12.95;;;;;;;;;;5100303;28;20184;-85
2021/01/04 10:49:05;;;;;;;16.63;11.63;;;;;;;;;;5098817;28;20218;-85
2021/01/04 10:51:32;;;;;;;17.98;12.00;;;;;;;;;;5092824;28;20188;-84
2021/01/04 10:53:58;;;;;;;15.95;11.80;;;;;;;;;;5102336;28;20229;-85
2021/01/04 10:56:29;;;;;;;16.40;12.27;;;;;;;;;;5099304;28;20621;-88
2021/01/04 10:59:14;;;;;;;19.55;13.75;;;;;;;;;;5093580;28;20187;-83
2021/01/04 11:01:42;;;;;;;17.92;12.88;;;;;;;;;;5098229;28;20229;-85
2021/01/04 11:04:15;;;;;;;17.17;13.05;;;;;;;;;;5095754;28;20210;-83
2021/01/04 11:06:42;;;;;;;15.10;11.88;;;;;;;;;;5098808;28;20197;-83
2021/01/04 11:09:16;;;;;;;17.00;11.73;;;;;;;;;;5095919;28;20180;-85
2021/01/04 11:11:44;;;;;;;18.88;13.48;;;;;;;;;;5094995;28;20183;-83
2021/01/04 11:14:13;;;;;;;18.20;13.15;;;;;;;;;;5093354;28;20234;-87
2021/01/04 11:16:52;;;;;;;16.85;11.70;;;;;;;;;;5097785;28;20188;-85
2021/01/04 11:19:35;;;;;;;17.92;13.30;;;;;;;;;;5100488;28;20191;-83
2021/01/04 11:22:19;;;;;;;17.27;11.80;;;;;;;;;;5094319;28;20230;-83
2021/01/04 11:24:46;;;;;;;13.57;10.25;;;;;;;;;;5098769;28;20187;-84
2021/01/04 11:27:12;;;;;;;15.23;11.68;;;;;;;;;;5097245;28;20191;-85
2021/01/04 11:29:38;;;;;;;17.30;12.15;;;;;;;;;;5098672;28;20200;-83
2021/01/04 11:32:05;;;;;;;15.43;11.55;;;;;;;;;;5099272;28;20420;-84
2021/01/04 11:34:31;;;;;;;18.05;12.15;;;;;;;;;;5103494;28;20191;-85
2021/01/04 11:36:57;;;;;;;16.40;12.00;;;;;;;;;;5099174;28;20179;-84
2021/01/04 11:39:23;;;;;;;16.60;11.10;;;;;;;;;;5101729;28;20446;-85
2021/01/04 11:41:49;;;;;;;17.55;10.38;;;;;;;;;;5096928;28;20206;-85
2021/01/04 11:44:15;;;;;;;17.35;11.60;;;;;;;;;;5095632;28;20199;-85
2021/01/04 11:46:41;;;;;;;15.55;12.05;;;;;;;;;;5097746;28;20191;-84
2021/01/04 11:49:07;;;;;;;15.57;10.98;;;;;;;;;;5099667;28;20188;-85
2021/01/04 11:51:33;;;;;;;15.70;11.57;;;;;;;;;;5091503;28;20194;-84
2021/01/04 11:53:59;;;;;;;16.65;12.50;;;;;;;;;;5097757;28;20528;-84
2021/01/04 11:56:29;;;;;;;18.75;13.23;;;;;;;;;;5101352;28;20186;-84
2021/01/04 11:58:56;;;;;;;15.13;11.10;;;;;;;;;;5096687;28;20515;-84
2021/01/04 12:01:22;;;;;;;17.90;11.48;;;;;;;;;;5100162;28;20680;-86
2021/01/04 12:03:48;;;;;;;13.65;10.95;;;;;;;;;;5102769;28;20187;-84
2021/01/04 12:06:14;;;;;;;14.80;11.77;;;;;;;;;;5090683;28;20184;-85
2021/01/04 12:08:40;;;;;;;18.63;10.90;;;;;;;;;;5097821;28;20576;-86
2021/01/04 12:11:07;;;;;;;19.33;11.68;;;;;;;;;;5101868;28;20171;-85
2021/01/04 12:13:33;;;;;;;18.15;11.35;;;;;;;;;;5097261;28;20188;-85
2021/01/04 12:15:59;;;;;;;14.90;11.45;;;;;;;;;;5089385;28;20180;-87
2021/01/04 12:18:25;;;;;;;18.02;11.85;;;;;;;;;;5093340;28;20185;-85
2021/01/04 12:20:51;;;;;;;16.37;12.73;;;;;;;;;;5097220;28;20187;-85
2021/01/04 12:23:17;;;;;;;13.77;10.40;;;;;;;;;;5101750;28;20465;-86
2021/01/04 12:25:43;;;;;;;15.27;10.10;;;;;;;;;;5100483;28;20176;-87
2021/01/04 12:28:10;;;;;;;15.25;10.77;;;;;;;;;;5102118;28;20676;-85
2021/01/04 12:30:37;;;;;;;14.10;11.30;;;;;;;;;;5100084;28;20191;-85
2021/01/04 12:33:03;;;;;;;12.48;9.10;;;;;;;;;;5100025;28;20184;-87
2021/01/04 12:35:29;;;;;;;17.13;11.77;;;;;;;;;;5096270;28;20267;-84
2021/01/04 12:37:55;;;;;;;14.55;10.25;;;;;;;;;;5096678;28;20531;-85
2021/01/04 12:40:26;;;;;;;12.45;9.10;;;;;;;;;;5102468;28;20191;-87
2021/01/04 12:42:52;;;;;;;13.20;8.57;;;;;;;;;;5094773;28;20200;-89
2021/01/04 12:45:18;;;;;;;13.75;10.40;;;;;;;;;;5098203;28;20253;-86
2021/01/04 12:47:44;;;;;;;13.15;9.13;;;;;;;;;;5092609;28;20188;-85
2021/01/04 12:50:11;;;;;;;14.57;8.57;;;;;;;;;;5087976;28;20241;-83
2021/01/04 12:52:36;;;;;;;11.95;8.60;;;;;;;;;;5091784;28;20209;-88
2021/01/04 12:55:03;;;;;;;12.20;9.23;;;;;;;;;;5091788;28;21885;-86
2021/01/04 12:57:29;;;;;;;12.40;9.50;;;;;;;;;;5093998;28;20262;-86
2021/01/04 12:59:56;;;;;;;13.05;9.20;;;;;;;;;;5092538;28;20216;-84
2021/01/04 13:02:21;;;;;;;12.15;10.07;;;;;;;;;;5099550;28;21659;-84
2021/01/04 13:04:48;;;;;;;13.53;8.63;;;;;;;;;;5086223;28;20274;-87
2021/01/04 13:07:15;;;;;;;12.10;9.30;;;;;;;;;;5090074;28;20531;-85
2021/01/04 13:09:41;;;;;;;11.50;8.70;;;;;;;;;;5084786;28;20183;-85
2021/01/04 13:12:07;;;;;;;11.25;8.45;;;;;;;;;;5095367;28;20430;-85
2021/01/04 13:14:34;;;;;;;13.60;9.25;;;;;;;;;;5096350;28;20203;-87
2021/01/04 13:17:00;;;;;;;11.52;8.82;;;;;;;;;;5097683;28;20203;-86
2021/01/04 13:19:30;;;;;;;12.23;9.38;;;;;;;;;;5095350;28;20728;-84
2021/01/04 13:22:00;;;;;;;11.23;9.05;;;;;;;;;;5096016;28;20293;-86
2021/01/04 13:24:26;;;;;;;13.07;9.23;;;;;;;;;;5087299;28;20211;-85
2021/01/04 13:26:53;;;;;;;12.13;8.95;;;;;;;;;;5097744;28;20211;-87
2021/01/04 13:29:26;;;;;;;13.70;10.68;;;;;;;;;;5101596;28;20179;-85
2021/01/04 13:31:53;;;;;;;11.60;9.10;;;;;;;;;;5090804;28;20179;-85
2021/01/04 13:34:19;;;;;;;12.20;9.48;;;;;;;;;;5100857;28;20210;-85
2021/01/04 13:36:49;;;;;;;10.60;8.23;;;;;;;;;;5101894;28;20180;-87
2021/01/04 13:39:16;;;;;;;10.15;7.10;;;;;;;;;;5095485;28;20202;-85
2021/01/04 13:41:49;;;;;;;12.32;8.60;;;;;;;;;;5096885;28;20273;-88
2021/01/04 13:44:15;;;;;;;15.00;11.40;;;;;;;;;;5098308;28;20172;-86
2021/01/04 13:46:41;;;;;;;14.80;12.20;;;;;;;;;;5099906;28;20183;-87
2021/01/04 13:49:07;;;;;;;11.18;7.97;;;;;;;;;;5100305;28;20229;-84
2021/01/04 13:51:33;;;;;;;9.80;7.93;;;;;;;;;;5099209;28;20246;-86
2021/01/04 13:53:59;;;;;;;15.00;10.13;;;;;;;;;;5098240;28;20463;-84
2021/01/04 13:56:25;;;;;;;12.23;9.13;;;;;;;;;;5097635;28;20469;-84
2021/01/04 13:58:51;;;;;;;10.45;8.27;;;;;;;;;;5100241;28;20180;-86
2021/01/04 14:01:20;;;;;;;13.13;8.93;;;;;;;;;;5100797;28;20195;-86
2021/01/04 14:03:46;;;;;;;12.20;9.15;;;;;;;;;;5097423;28;20177;-84
2021/01/04 14:06:45;;;;;;;13.82;10.68;;;;;;;;;;5090882;28;20202;-83
2021/01/04 14:09:12;;;;;;;10.95;8.50;;;;;;;;;;5094584;28;20188;-83
2021/01/04 14:11:38;;;;;;;10.18;8.68;;;;;;;;;;5097826;28;20273;-83
2021/01/04 14:14:04;;;;;;;11.02;8.73;;;;;;;;;;5093806;28;20184;-86
2021/01/04 14:16:30;;;;;;;10.02;8.68;;;;;;;;;;5095485;28;20261;-82
2021/01/04 14:18:59;;;;;;;12.05;9.35;;;;;;;;;;5093804;28;20204;-84
2021/01/04 14:21:26;;;;;;;11.55;8.63;;;;;;;;;;5088546;28;20200;-84
2021/01/04 14:23:52;;;;;;;11.77;8.88;;;;;;;;;;5097913;28;20230;-86
2021/01/04 14:26:19;;;;;;;9.50;8.30;;;;;;;;;;5095858;28;20184;-85
2021/01/04 14:28:49;;;;;;;12.15;9.27;;;;;;;;;;5094628;28;20682;-86
2021/01/04 14:31:18;;;;;;;14.60;10.15;;;;;;;;;;5096449;28;20184;-86
2021/01/04 14:33:44;;;;;;;13.13;9.50;;;;;;;;;;5102590;28;20180;-84
2021/01/04 14:36:19;;;;;;;12.88;9.52;;;;;;;;;;5093747;28;20188;-84
2021/01/04 14:38:45;;;;;;;12.63;9.45;;;;;;;;;;5100847;28;20762;-82
2021/01/04 14:41:15;;;;;;;15.68;11.85;;;;;;;;;;5095877;28;20214;-84